Time;durP1;ratioP1;P1;durP2;ratioP2;P2;SDS_P1;SDS_P2;PMS_P1;PMS_P2;Temp;Humidity;BMP_temperature;BMP_pressure;BME280_temperature;BME280_humidity;BME280_pressure;Samples;Min_cycle;Max_cycle;Signal;HPM_P1;HPM_P2
2022/05/23 00:01:38;;;;;;;6.18;2.40;;;15.70;99.90;;;;;;4872082;29;20653;-89
2022/05/23 00:04:04;;;;;;;5.32;2.22;;;15.70;99.90;;;;;;4853907;29;20041;-89
2022/05/23 00:06:29;;;;;;;6.13;2.10;;;15.60;99.90;;;;;;4867345;29;20048;-89
2022/05/23 00:08:55;;;;;;;5.25;2.28;;;15.70;99.90;;;;;;4868103;29;20080;-89
2022/05/23 00:11:21;;;;;;;6.35;2.28;;;15.60;99.90;;;;;;4871192;29;20099;-89
2022/05/23 00:13:47;;;;;;;5.63;2.08;;;15.60;99.90;;;;;;4901864;29;20048;-90
2022/05/23 00:16:19;;;;;;;5.05;1.98;;;15.60;99.90;;;;;;4885759;29;20044;-89
2022/05/23 00:18:45;;;;;;;7.82;2.10;;;15.60;99.90;;;;;;4901389;29;20131;-89
2022/05/23 00:21:10;;;;;;;5.57;2.28;;;15.50;99.90;;;;;;4870644;29;20127;-89
2022/05/23 00:23:36;;;;;;;6.88;2.40;;;15.60;99.90;;;;;;4878311;29;20079;-89
2022/05/23 00:26:02;;;;;;;5.85;2.25;;;15.50;99.90;;;;;;4879796;29;20122;-88
2022/05/23 00:28:27;;;;;;;4.53;2.17;;;15.50;99.90;;;;;;4886023;29;20047;-89
2022/05/23 00:30:53;;;;;;;5.38;2.47;;;15.50;99.90;;;;;;4885852;29;20110;-89
2022/05/23 00:36:03;;;;;;;4.63;2.00;;;15.50;99.90;;;;;;4888334;29;20092;-89
2022/05/23 00:38:29;;;;;;;6.38;1.98;;;15.50;99.90;;;;;;4901173;29;20040;-87
2022/05/23 00:44:00;;;;;;;3.53;1.90;;;15.50;99.90;;;;;;4900655;29;20052;-89
2022/05/23 00:46:26;;;;;;;5.05;2.03;;;15.50;99.90;;;;;;4893399;29;20484;-89
2022/05/23 00:48:52;;;;;;;5.95;2.33;;;15.40;99.90;;;;;;4869477;29;20076;-89
2022/05/23 00:51:18;;;;;;;7.28;1.92;;;15.40;99.90;;;;;;4885893;29;20493;-89
2022/05/23 00:53:53;;;;;;;5.47;1.85;;;15.40;99.90;;;;;;4907708;29;20036;-89
2022/05/23 00:56:23;;;;;;;4.78;2.00;;;15.40;99.90;;;;;;4885942;29;20467;-88
2022/05/23 00:58:53;;;;;;;7.35;3.15;;;15.40;99.90;;;;;;4880482;29;20052;-87
2022/05/23 01:01:23;;;;;;;6.57;2.22;;;15.40;99.90;;;;;;4896797;29;20100;-89
2022/05/23 01:03:49;;;;;;;3.42;1.75;;;15.40;99.90;;;;;;4901433;29;20036;-88
2022/05/23 01:06:15;;;;;;;3.38;2.00;;;15.30;99.90;;;;;;4870506;29;20024;-88
2022/05/23 01:08:42;;;;;;;5.18;2.00;;;15.30;99.90;;;;;;4907682;29;20028;-88
2022/05/23 01:11:09;;;;;;;3.72;1.65;;;15.30;99.90;;;;;;4878283;29;20048;-88
2022/05/23 01:13:35;;;;;;;3.58;1.60;;;15.30;99.90;;;;;;4885715;29;20048;-89
2022/05/23 01:16:01;;;;;;;5.00;2.00;;;15.30;99.90;;;;;;4900218;29;20040;-89
2022/05/23 01:18:27;;;;;;;4.03;1.90;;;15.30;99.90;;;;;;4885511;29;20058;-89
2022/05/23 01:21:02;;;;;;;5.10;1.83;;;15.30;99.90;;;;;;4880642;29;20040;-89
2022/05/23 01:23:52;;;;;;;6.95;2.30;;;15.30;99.90;;;;;;4889824;29;20050;-88
2022/05/23 01:26:18;;;;;;;4.95;2.28;;;15.30;99.90;;;;;;4889953;29;20417;-89
2022/05/23 01:28:44;;;;;;;4.80;2.10;;;15.20;99.90;;;;;;4883704;29;20033;-89
2022/05/23 01:31:12;;;;;;;6.07;1.90;;;15.20;99.90;;;;;;4901354;29;20055;-88
2022/05/23 01:33:39;;;;;;;6.25;2.00;;;15.20;99.90;;;;;;4902853;29;20055;-89
2022/05/23 01:36:09;;;;;;;4.68;2.28;;;15.20;99.90;;;;;;4883715;29;20040;-89
2022/05/23 01:38:35;;;;;;;5.80;2.00;;;15.20;99.90;;;;;;4884867;29;20074;-88
2022/05/23 01:41:01;;;;;;;6.60;2.45;;;15.20;99.90;;;;;;4888827;29;20076;-89
2022/05/23 01:43:27;;;;;;;5.90;2.50;;;15.10;99.90;;;;;;4888813;29;20374;-89
2022/05/23 01:45:52;;;;;;;5.68;2.10;;;15.20;99.90;;;;;;4885999;29;20528;-89
2022/05/23 01:48:18;;;;;;;3.83;2.08;;;15.20;99.90;;;;;;4885007;29;20035;-89
2022/05/23 01:50:44;;;;;;;5.68;2.40;;;15.10;99.90;;;;;;4895096;29;20071;-89
2022/05/23 01:53:09;;;;;;;5.57;2.60;;;15.10;99.90;;;;;;4879099;29;20604;-88
2022/05/23 01:55:36;;;;;;;6.45;2.28;;;15.10;99.90;;;;;;4888837;29;20040;-89
2022/05/23 01:58:03;;;;;;;4.45;2.08;;;15.10;99.90;;;;;;4917081;29;20378;-89
2022/05/23 02:03:29;;;;;;;5.63;2.90;;;15.10;99.90;;;;;;4867302;29;20044;-89
2022/05/23 02:05:55;;;;;;;4.00;2.10;;;15.00;99.90;;;;;;4863802;29;20190;-88
2022/05/23 02:08:21;;;;;;;6.50;2.40;;;15.00;99.90;;;;;;4877841;29;20043;-89
2022/05/23 02:10:47;;;;;;;5.35;2.40;;;15.00;99.90;;;;;;4904782;29;20044;-88
2022/05/23 02:13:12;;;;;;;5.90;2.30;;;15.00;99.90;;;;;;4898350;29;20040;-88
2022/05/23 02:15:38;;;;;;;4.15;2.25;;;15.00;99.90;;;;;;4885901;29;20067;-88
2022/05/23 02:18:05;;;;;;;4.63;2.42;;;14.90;99.90;;;;;;4873909;29;20059;-88
2022/05/23 02:20:31;;;;;;;4.45;2.10;;;14.90;99.90;;;;;;4893535;29;20044;-88
2022/05/23 02:22:57;;;;;;;6.32;2.80;;;14.90;99.90;;;;;;4904132;29;20127;-88
2022/05/23 02:25:24;;;;;;;6.50;2.55;;;14.90;99.90;;;;;;4867054;29;20071;-89
2022/05/23 02:27:50;;;;;;;4.68;2.42;;;14.90;99.90;;;;;;4888442;29;20036;-89
2022/05/23 02:30:16;;;;;;;6.70;2.30;;;14.90;99.90;;;;;;4900966;29;20076;-88
2022/05/23 02:32:43;;;;;;;5.72;2.88;;;14.90;99.90;;;;;;4904911;29;20477;-88
2022/05/23 02:35:09;;;;;;;7.43;2.70;;;14.80;99.90;;;;;;4903293;29;20055;-88
2022/05/23 02:37:35;;;;;;;7.28;2.78;;;14.80;99.90;;;;;;4888600;29;20052;-89
2022/05/23 02:40:00;;;;;;;5.53;2.47;;;14.80;99.90;;;;;;4904046;29;20496;-88
2022/05/23 02:42:27;;;;;;;4.68;2.40;;;14.80;99.90;;;;;;4904262;29;20115;-88
2022/05/23 02:44:53;;;;;;;7.68;2.60;;;14.80;99.90;;;;;;4887808;29;20044;-88
2022/05/23 02:47:18;;;;;;;7.88;2.70;;;14.80;99.90;;;;;;4874403;29;20047;-89
2022/05/23 02:49:44;;;;;;;3.88;2.00;;;14.80;99.90;;;;;;4873403;29;20044;-88
2022/05/23 02:52:10;;;;;;;5.45;2.30;;;14.80;99.90;;;;;;4888235;29;20080;-89
2022/05/23 02:54:36;;;;;;;6.38;2.75;;;14.80;99.90;;;;;;4903897;29;20055;-87
2022/05/23 02:57:01;;;;;;;5.28;2.80;;;14.80;99.90;;;;;;4888192;29;20079;-89
2022/05/23 02:59:27;;;;;;;4.28;2.55;;;14.80;99.90;;;;;;4904213;29;20048;-89
2022/05/23 03:04:37;;;;;;;7.18;2.40;;;14.70;99.90;;;;;;4904033;29;20461;-89
2022/05/23 03:07:03;;;;;;;6.43;2.30;;;14.70;99.90;;;;;;4890085;29;20115;-88
2022/05/23 03:09:31;;;;;;;6.57;2.30;;;14.70;99.90;;;;;;4889307;29;20080;-89
2022/05/23 03:11:56;;;;;;;3.13;2.10;;;14.70;99.90;;;;;;4858552;29;20481;-88
2022/05/23 03:14:22;;;;;;;7.00;2.78;;;14.70;99.90;;;;;;4873574;29;20132;-89
2022/05/23 03:16:48;;;;;;;7.18;2.53;;;14.70;99.90;;;;;;4889167;29;20048;-89
2022/05/23 03:19:13;;;;;;;7.18;2.85;;;14.60;99.90;;;;;;4858611;29;20112;-89
2022/05/23 03:27:07;;;;;;;8.07;2.70;;;14.60;99.90;;;;;;4890766;29;20048;-88
2022/05/23 03:29:33;;;;;;;3.60;2.00;;;14.60;99.90;;;;;;4886915;29;20048;-88
2022/05/23 03:31:58;;;;;;;4.50;2.45;;;14.60;99.90;;;;;;4871670;29;20408;-89
2022/05/23 03:34:24;;;;;;;7.85;2.70;;;14.50;99.90;;;;;;4870437;29;20080;-89
2022/05/23 03:36:50;;;;;;;6.35;2.25;;;14.50;99.90;;;;;;4885629;29;20047;-88
2022/05/23 03:39:16;;;;;;;7.75;2.50;;;14.50;99.90;;;;;;4858067;29;20044;-88
2022/05/23 03:41:42;;;;;;;5.50;2.85;;;14.50;99.90;;;;;;4903714;29;20040;-88
2022/05/23 03:44:08;;;;;;;4.38;2.38;;;14.40;99.90;;;;;;4888594;29;20412;-89
2022/05/23 03:46:34;;;;;;;3.58;2.38;;;14.40;99.90;;;;;;4889478;29;20047;-89
2022/05/23 03:49:01;;;;;;;5.78;2.60;;;14.40;99.90;;;;;;4873183;29;20048;-88
2022/05/23 03:51:27;;;;;;;6.40;2.45;;;14.40;99.90;;;;;;4905113;29;20091;-89
2022/05/23 03:53:53;;;;;;;4.43;2.40;;;14.40;99.90;;;;;;4889190;29;20044;-88
2022/05/23 03:56:19;;;;;;;4.45;2.50;;;14.30;99.90;;;;;;4888219;29;20127;-88
2022/05/23 03:58:45;;;;;;;7.97;2.97;;;14.30;99.90;;;;;;4884568;29;20052;-88
2022/05/23 04:01:13;;;;;;;3.60;2.45;;;14.30;99.90;;;;;;4875286;29;20128;-88
2022/05/23 04:03:39;;;;;;;5.95;2.60;;;14.20;99.90;;;;;;4865940;29;20045;-88
2022/05/23 04:06:06;;;;;;;4.07;2.85;;;14.20;99.90;;;;;;4866796;29;20601;-88
2022/05/23 04:08:32;;;;;;;4.68;2.50;;;14.20;99.90;;;;;;4871709;29;20036;-88
2022/05/23 04:10:58;;;;;;;4.47;2.60;;;14.20;99.90;;;;;;4884654;29;20044;-89
2022/05/23 04:13:25;;;;;;;8.68;2.72;;;14.20;99.90;;;;;;4869258;29;20059;-88
2022/05/23 04:15:51;;;;;;;4.65;2.40;;;14.10;99.90;;;;;;4885196;29;20492;-89
2022/05/23 04:18:17;;;;;;;5.68;2.75;;;14.10;99.90;;;;;;4869590;29;20072;-88
2022/05/23 04:20:43;;;;;;;5.75;2.70;;;14.10;99.90;;;;;;4898351;29;20409;-88
2022/05/23 04:23:09;;;;;;;5.57;2.53;;;14.10;99.90;;;;;;4872150;29;20051;-88
2022/05/23 04:25:43;;;;;;;5.82;2.70;;;14.10;99.90;;;;;;4881180;29;20104;-88
2022/05/23 04:28:10;;;;;;;5.25;2.72;;;14.10;99.90;;;;;;4849993;29;20056;-88
2022/05/23 04:30:36;;;;;;;5.25;2.83;;;14.10;99.90;;;;;;4860569;29;20104;-89
2022/05/23 04:35:49;;;;;;;6.00;2.50;;;14.10;99.90;;;;;;4894425;29;20434;-88
2022/05/23 04:38:16;;;;;;;5.60;2.63;;;14.10;99.90;;;;;;4870451;29;20051;-88
2022/05/23 04:40:42;;;;;;;5.90;2.90;;;14.10;99.90;;;;;;4886666;29;20036;-89
2022/05/23 04:43:07;;;;;;;5.85;2.90;;;14.20;99.90;;;;;;4856887;29;20065;-88
2022/05/23 04:45:33;;;;;;;5.35;2.70;;;14.20;99.90;;;;;;4868919;29;20132;-89
2022/05/23 04:50:44;;;;;;;4.20;2.70;;;14.20;99.90;;;;;;4870732;29;20064;-88
2022/05/23 04:53:10;;;;;;;6.43;2.90;;;14.30;99.90;;;;;;4868639;29;20047;-88
2022/05/23 04:55:37;;;;;;;7.32;2.95;;;14.20;99.90;;;;;;4866131;29;20044;-89
2022/05/23 04:58:03;;;;;;;7.15;2.70;;;14.20;99.90;;;;;;4866406;29;20048;-88
2022/05/23 05:00:30;;;;;;;6.85;3.17;;;14.20;99.90;;;;;;4884123;29;20041;-88
2022/05/23 05:02:59;;;;;;;6.63;3.22;;;14.30;99.90;;;;;;4869338;29;20131;-88
2022/05/23 05:05:26;;;;;;;6.97;3.67;;;14.30;99.90;;;;;;4884956;29;20041;-88
2022/05/23 05:07:52;;;;;;;6.75;2.90;;;14.30;99.90;;;;;;4869582;29;20048;-89
2022/05/23 05:10:18;;;;;;;4.78;2.70;;;14.30;99.90;;;;;;4835753;29;20048;-88
2022/05/23 05:12:44;;;;;;;5.32;2.85;;;14.30;99.90;;;;;;4852858;29;20100;-88
2022/05/23 05:15:10;;;;;;;7.00;2.90;;;14.40;99.90;;;;;;4862219;29;20044;-88
2022/05/23 05:17:36;;;;;;;14.05;3.42;;;14.40;99.90;;;;;;4874394;29;20052;-89
2022/05/23 05:20:02;;;;;;;4.88;3.00;;;14.50;99.90;;;;;;4854440;29;20052;-89
2022/05/23 05:22:28;;;;;;;5.13;2.90;;;14.50;99.90;;;;;;4870119;29;20048;-89
2022/05/23 05:24:53;;;;;;;6.68;2.88;;;14.60;99.90;;;;;;4854718;29;20037;-88
2022/05/23 05:27:19;;;;;;;7.97;3.20;;;14.60;99.90;;;;;;4871800;29;20037;-89
2022/05/23 05:29:45;;;;;;;8.80;3.67;;;14.70;99.90;;;;;;4886788;29;20048;-88
2022/05/23 05:32:23;;;;;;;6.57;3.50;;;14.80;99.90;;;;;;4856812;29;20047;-88
2022/05/23 05:35:02;;;;;;;6.38;3.20;;;14.80;99.90;;;;;;4871902;29;20040;-89
2022/05/23 05:37:33;;;;;;;5.80;3.70;;;14.80;99.90;;;;;;4886259;29;20049;-89
2022/05/23 05:40:03;;;;;;;6.40;3.05;;;14.90;99.90;;;;;;4872878;29;20051;-89
2022/05/23 05:42:40;;;;;;;5.95;3.38;;;14.90;99.90;;;;;;4891427;29;20086;-88
2022/05/23 05:45:11;;;;;;;5.38;3.30;;;15.00;99.90;;;;;;4890785;29;20048;-88
2022/05/23 05:47:40;;;;;;;8.75;3.70;;;15.00;99.90;;;;;;4906648;29;20046;-89
2022/05/23 05:50:24;;;;;;;11.18;3.58;;;15.00;99.90;;;;;;4907890;29;20040;-89
2022/05/23 05:52:52;;;;;;;11.18;3.60;;;15.00;99.90;;;;;;4896208;29;20154;-89
2022/05/23 05:55:18;;;;;;;8.25;3.83;;;15.00;99.90;;;;;;4905816;29;20163;-89
2022/05/23 05:57:44;;;;;;;7.93;3.67;;;15.10;99.90;;;;;;4877622;29;20063;-89
2022/05/23 06:00:10;;;;;;;10.57;3.75;;;15.10;99.90;;;;;;4889809;29;20050;-89
2022/05/23 06:02:37;;;;;;;8.68;3.50;;;15.20;99.90;;;;;;4890020;29;20091;-89
2022/05/23 06:05:03;;;;;;;6.20;3.97;;;15.30;99.90;;;;;;4887597;29;20511;-89
2022/05/23 06:13:00;;;;;;;6.57;3.63;;;15.60;99.90;;;;;;4905852;29;20103;-88
2022/05/23 06:15:26;;;;;;;8.75;3.53;;;15.70;99.90;;;;;;4902025;29;20040;-89
2022/05/23 06:17:52;;;;;;;9.52;4.00;;;15.80;99.90;;;;;;4872286;29;20052;-87
2022/05/23 06:20:19;;;;;;;5.85;3.47;;;15.90;99.90;;;;;;4892386;29;20051;-89
2022/05/23 06:22:45;;;;;;;7.90;3.95;;;15.90;99.90;;;;;;4898336;29;20068;-88
2022/05/23 06:25:11;;;;;;;5.85;3.70;;;16.00;99.90;;;;;;4923576;29;20052;-88
2022/05/23 06:27:37;;;;;;;6.43;3.90;;;16.10;99.90;;;;;;4892732;29;20096;-89
2022/05/23 06:30:06;;;;;;;6.53;4.03;;;16.20;99.90;;;;;;4916565;29;20044;-88
2022/05/23 06:32:32;;;;;;;8.90;4.07;;;16.30;99.90;;;;;;4894071;29;20043;-88
2022/05/23 06:34:58;;;;;;;6.43;3.95;;;16.40;99.90;;;;;;4889988;29;20044;-88
2022/05/23 06:37:24;;;;;;;5.97;3.80;;;16.50;99.90;;;;;;4890878;29;20092;-88
2022/05/23 06:39:50;;;;;;;8.30;3.95;;;16.60;99.90;;;;;;4889812;29;20556;-89
2022/05/23 06:42:16;;;;;;;9.60;4.45;;;16.60;99.90;;;;;;4882996;29;20067;-88
2022/05/23 06:44:41;;;;;;;7.05;4.20;;;16.80;99.90;;;;;;4904147;29;20040;-88
2022/05/23 06:47:07;;;;;;;7.35;4.03;;;16.90;99.90;;;;;;4868940;29;20159;-89
2022/05/23 06:49:33;;;;;;;8.68;4.50;;;17.00;99.90;;;;;;4905334;29;20036;-87
2022/05/23 06:51:59;;;;;;;5.72;4.28;;;17.10;99.90;;;;;;4888807;29;20095;-89
2022/05/23 06:54:25;;;;;;;8.82;4.30;;;17.20;99.90;;;;;;4904913;29;20044;-88
2022/05/23 06:56:50;;;;;;;6.90;3.95;;;17.30;99.90;;;;;;4895539;29;20073;-88
2022/05/23 06:59:18;;;;;;;6.65;3.95;;;17.40;99.90;;;;;;4889565;29;20048;-86
2022/05/23 07:01:45;;;;;;;8.45;4.35;;;17.50;99.90;;;;;;4887203;29;20171;-87
2022/05/23 07:04:11;;;;;;;8.40;5.28;;;17.60;99.90;;;;;;4875446;29;20083;-87
2022/05/23 07:12:27;;;;;;;8.40;4.00;;;18.20;99.90;;;;;;4900553;29;20071;-87
2022/05/23 07:14:56;;;;;;;8.18;3.97;;;18.30;99.90;;;;;;4888243;29;20048;-87
2022/05/23 07:17:23;;;;;;;8.32;4.10;;;18.40;99.90;;;;;;4892606;29;20051;-86
2022/05/23 07:19:49;;;;;;;9.15;4.00;;;18.50;99.90;;;;;;4879259;29;20044;-85
2022/05/23 07:22:15;;;;;;;7.63;3.80;;;18.70;99.90;;;;;;4903744;29;20099;-86
2022/05/23 07:24:41;;;;;;;9.98;4.20;;;18.80;99.90;;;;;;4874091;29;20037;-86
2022/05/23 07:27:07;;;;;;;5.43;3.60;;;19.00;99.90;;;;;;4903192;29;20036;-86
2022/05/23 07:29:33;;;;;;;7.63;3.90;;;19.10;99.90;;;;;;4903685;29;20055;-87
2022/05/23 07:31:59;;;;;;;7.20;3.90;;;19.20;99.90;;;;;;4902936;29;20408;-87
2022/05/23 07:34:25;;;;;;;10.30;3.58;;;19.20;99.90;;;;;;4875476;29;20056;-87
2022/05/23 07:36:50;;;;;;;8.82;4.00;;;19.40;99.90;;;;;;4879146;29;20048;-86
2022/05/23 07:39:16;;;;;;;6.72;3.97;;;19.50;99.90;;;;;;4901287;29;20041;-86
2022/05/23 07:41:43;;;;;;;7.13;4.00;;;19.60;99.90;;;;;;4902897;29;20107;-86
2022/05/23 07:44:11;;;;;;;9.52;3.70;;;19.80;99.90;;;;;;4891626;29;20060;-86
2022/05/23 07:46:40;;;;;;;9.30;3.80;;;19.90;99.90;;;;;;4853816;29;20123;-87
2022/05/23 07:49:06;;;;;;;7.25;3.90;;;20.20;99.90;;;;;;4896211;29;20441;-87
2022/05/23 07:51:32;;;;;;;7.95;4.30;;;20.40;99.90;;;;;;4907573;29;20059;-86
2022/05/23 08:02:15;;;;;;;5.78;3.70;;;20.90;99.90;;;;;;4895292;29;20080;-87
2022/05/23 08:04:41;;;;;;;7.05;3.70;;;21.00;99.90;;;;;;4881230;29;20100;-87
2022/05/23 08:07:09;;;;;;;7.97;3.75;;;21.20;99.90;;;;;;4878138;29;20040;-87
2022/05/23 08:09:41;;;;;;;8.35;4.25;;;21.30;99.90;;;;;;4897097;29;20653;-87
2022/05/23 08:12:09;;;;;;;6.35;3.85;;;21.30;99.90;;;;;;4883019;29;20402;-87
2022/05/23 08:14:34;;;;;;;9.13;3.95;;;21.40;99.90;;;;;;4879083;29;20060;-88
2022/05/23 08:17:00;;;;;;;8.80;3.90;;;21.60;99.90;;;;;;4881804;29;20102;-87
2022/05/23 08:19:26;;;;;;;6.88;3.80;;;21.70;99.90;;;;;;4878529;29;20088;-87
2022/05/23 08:21:56;;;;;;;6.45;4.07;;;21.80;99.90;;;;;;4859801;29;20489;-87
2022/05/23 08:24:22;;;;;;;7.18;4.10;;;22.00;99.80;;;;;;4898199;29;20076;-87
2022/05/23 08:26:48;;;;;;;6.45;3.83;;;22.10;99.70;;;;;;4896552;29;20048;-87
2022/05/23 08:29:14;;;;;;;6.18;3.50;;;22.10;99.90;;;;;;4882749;29;20544;-86
2022/05/23 08:31:41;;;;;;;6.68;4.10;;;22.20;99.90;;;;;;4880375;29;20040;-86
2022/05/23 08:34:07;;;;;;;8.20;3.90;;;22.30;99.90;;;;;;4883124;29;20119;-87
2022/05/23 08:36:34;;;;;;;6.90;4.05;;;22.20;99.90;;;;;;4897811;29;20062;-86
2022/05/23 08:39:00;;;;;;;5.90;3.78;;;22.20;99.90;;;;;;4879993;29;20040;-86
2022/05/23 08:41:31;;;;;;;7.60;4.00;;;22.30;99.90;;;;;;4883207;29;20044;-85
2022/05/23 08:44:05;;;;;;;8.15;4.03;;;22.50;99.90;;;;;;4894679;29;20560;-86
2022/05/23 08:46:49;;;;;;;7.13;3.83;;;22.50;99.90;;;;;;4876211;29;20127;-87
2022/05/23 08:49:46;;;;;;;7.07;4.22;;;22.60;99.90;;;;;;4878343;29;20179;-87
2022/05/23 08:52:26;;;;;;;9.13;4.15;;;22.60;99.90;;;;;;4894695;29;20040;-87
2022/05/23 08:55:05;;;;;;;7.68;4.00;;;22.70;99.90;;;;;;4894300;29;20099;-88
2022/05/23 08:57:55;;;;;;;6.65;4.13;;;22.80;99.40;;;;;;4894088;29;20067;-87
2022/05/23 09:00:25;;;;;;;8.20;3.88;;;23.00;99.50;;;;;;4912509;29;20048;-87
2022/05/23 09:02:54;;;;;;;4.15;2.92;;;23.00;98.50;;;;;;4898047;29;21391;-86
2022/05/23 09:05:23;;;;;;;6.28;3.30;;;23.10;98.60;;;;;;4895804;29;20068;-87
2022/05/23 09:07:54;;;;;;;6.45;3.63;;;23.20;99.00;;;;;;4894296;29;20044;-88
2022/05/23 09:10:43;;;;;;;10.05;3.95;;;23.40;99.00;;;;;;4897693;29;20444;-89
2022/05/23 09:13:11;;;;;;;7.20;3.95;;;23.60;97.60;;;;;;4893010;29;20044;-89
2022/05/23 09:15:37;;;;;;;4.68;3.15;;;23.50;95.80;;;;;;4885187;29;20408;-88
2022/05/23 09:18:13;;;;;;;9.18;3.80;;;23.30;96.60;;;;;;4880826;29;20508;-87
2022/05/23 09:21:06;;;;;;;7.22;3.83;;;23.30;97.30;;;;;;4895556;29;20040;-88
2022/05/23 09:23:37;;;;;;;7.18;4.00;;;23.20;98.10;;;;;;4873623;29;20112;-88
2022/05/23 09:26:09;;;;;;;6.55;4.07;;;23.20;98.30;;;;;;4878660;29;20386;-88
2022/05/23 09:28:37;;;;;;;5.65;3.55;;;23.10;99.20;;;;;;4894706;29;20064;-87
2022/05/23 09:31:17;;;;;;;7.68;3.65;;;23.10;98.50;;;;;;4896115;29;20059;-87
2022/05/23 09:33:46;;;;;;;6.18;3.60;;;23.10;98.00;;;;;;4904063;29;20497;-88
2022/05/23 09:36:18;;;;;;;7.70;3.50;;;23.10;98.50;;;;;;4879853;29;20044;-87
2022/05/23 09:38:46;;;;;;;7.60;3.70;;;23.10;98.90;;;;;;4895448;29;20416;-86
2022/05/23 09:49:55;;;;;;;3.67;3.07;;;23.30;99.30;;;;;;4883226;29;20055;-86
2022/05/23 09:52:25;;;;;;;4.85;2.70;;;23.40;98.20;;;;;;4864398;29;20068;-87
2022/05/23 09:55:01;;;;;;;7.65;2.70;;;23.40;96.80;;;;;;4881914;29;20032;-87
2022/05/23 09:57:35;;;;;;;6.95;2.90;;;23.30;97.40;;;;;;4893949;29;20088;-91
2022/05/23 10:00:05;;;;;;;3.42;2.47;;;23.40;97.10;;;;;;4879953;29;20055;-88
2022/05/23 10:02:36;;;;;;;3.83;2.47;;;23.50;96.10;;;;;;4909865;29;20044;-88
2022/05/23 10:05:05;;;;;;;6.97;2.78;;;23.60;96.40;;;;;;4898898;29;20263;-88
2022/05/23 10:07:32;;;;;;;4.60;2.95;;;23.80;95.20;;;;;;4896775;29;20062;-88
2022/05/23 10:10:17;;;;;;;4.07;2.92;;;23.80;94.70;;;;;;4890537;29;20048;-88
2022/05/23 10:12:42;;;;;;;3.67;2.40;;;23.80;94.20;;;;;;4873192;29;20078;-86
2022/05/23 10:15:17;;;;;;;6.90;2.67;;;23.90;95.50;;;;;;4898522;29;20055;-89
2022/05/23 10:17:43;;;;;;;5.55;2.92;;;23.90;96.70;;;;;;4890204;29;20050;-87
2022/05/23 10:20:30;;;;;;;4.43;2.50;;;24.00;96.80;;;;;;4873413;29;20119;-88
2022/05/23 10:22:58;;;;;;;5.28;2.60;;;24.10;95.90;;;;;;4902696;29;20032;-87
2022/05/23 10:25:26;;;;;;;6.32;2.65;;;24.20;95.30;;;;;;4898266;29;20071;-86
2022/05/23 10:28:00;;;;;;;6.20;3.03;;;24.20;93.70;;;;;;4897399;29;20069;-87
2022/05/23 10:30:31;;;;;;;2.80;2.10;;;24.20;91.20;;;;;;4897837;29;20099;-87
2022/05/23 10:33:03;;;;;;;3.97;2.20;;;24.10;90.40;;;;;;4884794;29;20448;-87
2022/05/23 10:35:38;;;;;;;5.53;2.20;;;24.10;90.90;;;;;;4898555;29;20054;-87
2022/05/23 10:44:15;;;;;;;2.97;1.92;;;24.20;92.30;;;;;;4910146;29;20079;-87
2022/05/23 10:46:46;;;;;;;3.25;2.17;;;24.30;91.70;;;;;;4901676;29;20044;-91
2022/05/23 10:49:37;;;;;;;4.95;2.35;;;24.40;91.80;;;;;;4898808;29;20047;-89
2022/05/23 10:52:32;;;;;;;7.22;2.35;;;24.50;91.30;;;;;;4884374;29;20560;-90
2022/05/23 10:55:17;;;;;;;5.32;2.50;;;24.50;90.40;;;;;;4880324;29;20077;-93
2022/05/23 10:58:01;;;;;;;6.75;2.70;;;24.50;87.90;;;;;;4897914;29;20067;-92
2022/05/23 11:00:45;;;;;;;6.80;2.55;;;24.40;86.20;;;;;;4897608;29;20039;-91
2022/05/23 11:03:36;;;;;;;5.20;2.25;;;24.40;86.60;;;;;;4885772;29;20430;-91
2022/05/23 11:06:22;;;;;;;5.00;1.90;;;24.40;88.20;;;;;;4882107;29;20051;-92
2022/05/23 11:09:01;;;;;;;6.28;2.03;;;24.50;86.00;;;;;;4884523;29;20044;-88
2022/05/23 11:11:51;;;;;;;7.72;2.20;;;24.60;84.80;;;;;;4884795;29;20032;-92
2022/05/23 11:14:29;;;;;;;4.25;1.88;;;24.70;83.20;;;;;;4883860;29;20036;-89
2022/05/23 11:17:23;;;;;;;5.78;2.03;;;24.70;83.60;;;;;;4914967;29;20040;-89
2022/05/23 11:20:12;;;;;;;4.18;1.92;;;24.80;83.10;;;;;;4904346;29;20725;-90
2022/05/23 11:22:43;;;;;;;4.22;2.08;;;24.80;82.30;;;;;;4897226;29;20092;-90
2022/05/23 11:25:29;;;;;;;4.80;2.13;;;24.80;80.50;;;;;;4915985;29;20070;-90
2022/05/23 11:34:11;;;;;;;5.40;2.10;;;24.80;81.10;;;;;;4902201;29;20427;-90
2022/05/23 11:36:56;;;;;;;4.13;1.80;;;24.90;81.40;;;;;;4907479;29;20048;-90
2022/05/23 11:39:44;;;;;;;6.43;1.80;;;25.00;81.50;;;;;;4920537;29;20051;-89
2022/05/23 11:42:32;;;;;;;4.75;2.03;;;25.00;82.30;;;;;;4918564;29;20323;-91
2022/05/23 11:47:53;;;;;;;4.63;2.10;;;24.80;80.50;;;;;;4878832;29;20087;-90
2022/05/23 11:50:33;;;;;;;3.58;2.20;;;24.60;79.00;;;;;;4879843;29;20076;-91
2022/05/23 11:53:20;;;;;;;4.35;2.33;;;24.50;78.80;;;;;;4863953;29;20040;-89
2022/05/23 11:55:53;;;;;;;2.90;1.77;;;24.30;80.60;;;;;;4864404;29;20052;-90
2022/05/23 11:58:48;;;;;;;6.30;2.17;;;24.30;83.10;;;;;;4880338;29;20096;-88
2022/05/23 12:01:14;;;;;;;4.50;2.13;;;24.20;83.60;;;;;;4880707;29;20056;-90
2022/05/23 12:04:07;;;;;;;4.50;2.15;;;24.20;85.90;;;;;;4862282;29;20041;-90
2022/05/23 12:06:38;;;;;;;4.97;2.20;;;24.20;87.60;;;;;;4863847;29;20516;-89
2022/05/23 12:09:13;;;;;;;6.43;2.40;;;24.10;87.00;;;;;;4880369;29;20104;-88
2022/05/23 12:11:42;;;;;;;5.15;2.30;;;24.20;85.80;;;;;;4877620;29;20045;-89
2022/05/23 12:14:31;;;;;;;5.97;2.30;;;24.10;85.50;;;;;;4878476;29;20065;-88
2022/05/23 12:16:57;;;;;;;5.03;2.33;;;24.10;86.30;;;;;;4877617;29;20497;-89
2022/05/23 12:19:41;;;;;;;6.50;2.67;;;24.00;87.60;;;;;;4875285;29;20043;-88
2022/05/23 12:22:34;;;;;;;4.60;2.97;;;24.00;87.90;;;;;;4879179;29;20052;-89
2022/05/23 12:25:25;;;;;;;5.70;3.13;;;23.90;89.40;;;;;;4887449;29;20033;-89
2022/05/23 12:27:50;;;;;;;4.65;3.10;;;23.80;90.30;;;;;;4869911;29;20053;-90
2022/05/23 12:30:23;;;;;;;3.92;3.10;;;23.70;91.10;;;;;;4861390;29;20052;-87
2022/05/23 12:33:05;;;;;;;4.90;3.10;;;23.70;92.00;;;;;;4892589;29;20056;-87
2022/05/23 12:35:36;;;;;;;5.13;3.13;;;23.60;93.30;;;;;;4877522;29;20048;-87
2022/05/23 12:38:15;;;;;;;9.00;3.97;;;23.70;95.50;;;;;;4891642;29;20083;-88
2022/05/23 12:40:53;;;;;;;7.43;3.75;;;23.70;96.80;;;;;;4875446;29;20101;-87
2022/05/23 12:43:22;;;;;;;6.63;3.50;;;23.60;98.00;;;;;;4880693;29;20180;-88
2022/05/23 12:45:57;;;;;;;4.72;3.30;;;23.70;99.20;;;;;;4870691;29;20036;-87
2022/05/23 12:48:28;;;;;;;7.38;3.97;;;23.70;98.10;;;;;;4876892;29;20068;-89
2022/05/23 12:51:05;;;;;;;5.90;3.60;;;23.70;96.90;;;;;;4868419;29;20173;-89
2022/05/23 12:53:53;;;;;;;6.78;4.10;;;23.70;96.70;;;;;;4875691;29;20132;-88
2022/05/23 12:56:22;;;;;;;6.15;4.18;;;23.70;97.00;;;;;;4874778;29;20569;-88
2022/05/23 12:59:06;;;;;;;7.80;4.30;;;23.60;97.00;;;;;;4879737;29;20082;-88
2022/05/23 13:01:36;;;;;;;5.43;4.05;;;23.60;99.60;;;;;;4869094;29;20112;-90
2022/05/23 13:04:09;;;;;;;8.50;4.28;;;23.70;98.70;;;;;;4868160;29;20056;-90
2022/05/23 13:07:05;;;;;;;7.53;4.68;;;23.90;99.00;;;;;;4878211;29;20116;-87
2022/05/23 13:09:57;;;;;;;5.68;3.80;;;24.00;97.70;;;;;;4876828;29;20057;-88
2022/05/23 13:12:35;;;;;;;6.65;4.43;;;24.00;98.50;;;;;;4877812;29;20127;-90
2022/05/23 13:15:01;;;;;;;6.25;4.10;;;24.10;97.80;;;;;;4880807;29;20112;-89
2022/05/23 13:17:34;;;;;;;6.80;4.50;;;24.10;97.10;;;;;;4860709;29;20052;-88
2022/05/23 13:22:44;;;;;;;9.15;4.20;;;24.10;96.90;;;;;;4865701;29;20836;-89
2022/05/23 13:25:10;;;;;;;7.95;4.20;;;24.10;97.40;;;;;;4878211;29;20049;-89
2022/05/23 13:27:58;;;;;;;8.45;4.70;;;24.20;97.70;;;;;;4878943;29;20541;-89
2022/05/23 13:30:27;;;;;;;10.15;4.53;;;24.40;97.80;;;;;;4878749;29;20088;-89
2022/05/23 13:33:21;;;;;;;6.03;4.10;;;24.40;98.30;;;;;;4878243;29;20072;-89
2022/05/23 13:35:52;;;;;;;8.10;4.45;;;24.60;98.60;;;;;;4861190;29;20060;-88
2022/05/23 13:38:37;;;;;;;6.88;4.80;;;24.70;97.40;;;;;;4880678;29;20251;-89
2022/05/23 13:41:05;;;;;;;6.28;4.10;;;24.90;96.40;;;;;;4869521;29;20052;-88
2022/05/23 13:43:44;;;;;;;9.15;5.18;;;24.90;97.50;;;;;;4871070;29;20056;-88
2022/05/23 13:46:25;;;;;;;7.20;4.88;;;24.90;96.30;;;;;;4896166;29;20048;-90
2022/05/23 13:49:02;;;;;;;9.35;4.68;;;24.90;94.80;;;;;;4888355;29;20041;-89
2022/05/23 13:51:38;;;;;;;9.70;5.00;;;24.90;95.50;;;;;;4893943;29;20052;-89
2022/05/23 13:54:36;;;;;;;8.07;4.57;;;24.80;95.90;;;;;;4895113;29;20123;-92
2022/05/23 13:57:15;;;;;;;6.20;4.57;;;24.90;95.50;;;;;;4895828;29;20040;-91
2022/05/23 13:59:51;;;;;;;7.28;4.72;;;24.80;95.20;;;;;;4888077;29;20050;-90
2022/05/23 14:02:24;;;;;;;7.15;4.75;;;24.70;95.60;;;;;;4889629;29;20057;-91
2022/05/23 14:04:53;;;;;;;6.88;4.70;;;24.60;96.10;;;;;;4877655;29;20051;-91
2022/05/23 14:07:23;;;;;;;7.75;5.00;;;24.50;95.80;;;;;;4894350;29;20048;-88
2022/05/23 14:09:52;;;;;;;5.93;4.70;;;24.50;96.00;;;;;;4890528;29;20040;-88
2022/05/23 14:12:23;;;;;;;11.77;5.35;;;24.40;96.30;;;;;;4888232;29;20551;-89